Time;durP1;ratioP1;P1;durP2;ratioP2;P2;SDS_P1;SDS_P2;PMS_P1;PMS_P2;Temp;Humidity;BMP_temperature;BMP_pressure;BME280_temperature;BME280_humidity;BME280_pressure;Samples;Min_cycle;Max_cycle;Signal;HPM_P1;HPM_P2
2021/03/19 00:00:23;;;;;;;4.50;3.27;;;1.20;99.90;;;;;;5028084;28;20229;-70
2021/03/19 00:02:51;;;;;;;6.00;3.67;;;1.10;99.90;;;;;;5027497;28;20183;-72
2021/03/19 00:05:18;;;;;;;8.07;5.17;;;1.10;99.90;;;;;;5029823;28;20753;-69
2021/03/19 00:07:49;;;;;;;4.20;2.87;;;1.10;99.90;;;;;;5033574;28;20689;-70
2021/03/19 00:10:18;;;;;;;8.07;4.43;;;1.00;99.90;;;;;;5024125;28;20222;-68
2021/03/19 00:12:48;;;;;;;7.33;5.03;;;1.00;99.90;;;;;;5024424;28;20178;-71
2021/03/19 00:15:16;;;;;;;6.37;4.13;;;1.10;99.90;;;;;;5023901;28;20194;-72
2021/03/19 00:17:42;;;;;;;6.63;3.97;;;1.00;99.90;;;;;;5021193;28;20317;-72
2021/03/19 00:20:10;;;;;;;7.17;4.07;;;0.90;99.90;;;;;;5030069;28;20186;-72
2021/03/19 00:22:36;;;;;;;7.23;3.43;;;0.80;99.90;;;;;;5021972;28;20193;-70
2021/03/19 00:25:03;;;;;;;6.40;3.80;;;0.80;99.90;;;;;;5023504;28;20211;-71
2021/03/19 00:27:29;;;;;;;5.00;4.07;;;0.70;99.90;;;;;;5021969;28;20233;-71
2021/03/19 00:29:56;;;;;;;4.53;3.57;;;0.60;99.90;;;;;;5023487;28;20203;-70
2021/03/19 00:32:22;;;;;;;5.93;4.17;;;0.60;99.90;;;;;;5026216;28;20182;-70
2021/03/19 00:34:48;;;;;;;8.77;4.43;;;0.50;99.90;;;;;;5036305;28;20201;-70
2021/03/19 00:37:13;;;;;;;8.10;4.53;;;0.40;99.90;;;;;;5027340;28;20183;-70
2021/03/19 00:39:39;;;;;;;7.37;4.53;;;0.40;99.90;;;;;;5026863;28;20175;-68
2021/03/19 00:42:05;;;;;;;4.50;3.47;;;0.30;99.90;;;;;;5033530;28;20249;-70
2021/03/19 00:44:31;;;;;;;4.80;3.57;;;0.30;99.90;;;;;;5025317;28;20581;-72
2021/03/19 00:46:57;;;;;;;6.13;4.67;;;0.20;99.90;;;;;;5025565;28;20191;-70
2021/03/19 00:49:22;;;;;;;5.83;4.37;;;0.20;99.90;;;;;;5033159;28;20636;-67
2021/03/19 00:51:48;;;;;;;6.53;3.77;;;0.10;99.90;;;;;;5026148;28;20189;-70
2021/03/19 00:54:14;;;;;;;3.30;2.97;;;0.00;99.90;;;;;;5029471;28;20752;-71
2021/03/19 00:56:40;;;;;;;5.13;3.63;;;-0.10;99.90;;;;;;5026466;28;20185;-69
2021/03/19 00:59:07;;;;;;;5.97;3.37;;;-0.10;99.90;;;;;;5026862;28;20675;-69
2021/03/19 01:01:36;;;;;;;7.73;4.07;;;-0.20;99.90;;;;;;5024723;28;20187;-69
2021/03/19 01:04:03;;;;;;;5.10;3.83;;;-0.20;99.90;;;;;;5032827;28;20227;-68
2021/03/19 01:06:30;;;;;;;5.00;3.30;;;-0.30;99.90;;;;;;5027723;28;20450;-69
2021/03/19 01:08:56;;;;;;;7.63;3.97;;;-0.30;99.90;;;;;;5030795;28;20195;-69
2021/03/19 01:11:22;;;;;;;4.73;4.10;;;-0.30;99.90;;;;;;5037127;28;20220;-69
2021/03/19 01:13:48;;;;;;;5.67;3.77;;;-0.30;99.90;;;;;;5028021;28;20199;-68
2021/03/19 01:16:14;;;;;;;7.43;4.20;;;-0.40;99.90;;;;;;5029177;28;20179;-67
2021/03/19 01:18:40;;;;;;;5.50;3.20;;;-0.30;99.90;;;;;;5032395;28;20185;-68
2021/03/19 01:21:06;;;;;;;6.10;4.30;;;-0.40;99.90;;;;;;5026411;28;20560;-68
2021/03/19 01:23:32;;;;;;;6.03;4.13;;;-0.50;99.90;;;;;;5026430;28;20272;-70
2021/03/19 01:25:58;;;;;;;6.67;3.93;;;-0.50;99.90;;;;;;5028606;28;20182;-70
2021/03/19 01:28:24;;;;;;;4.17;3.17;;;-0.50;99.90;;;;;;5032240;28;20582;-71
2021/03/19 01:30:50;;;;;;;4.23;3.17;;;-0.70;99.90;;;;;;5032556;28;20517;-70
2021/03/19 01:33:16;;;;;;;4.73;3.83;;;-0.70;99.90;;;;;;5025544;28;20698;-69
2021/03/19 01:35:43;;;;;;;5.27;3.30;;;-0.70;99.90;;;;;;5026147;28;20194;-69
2021/03/19 01:38:09;;;;;;;4.60;2.73;;;-0.80;99.90;;;;;;5030298;28;20175;-70
2021/03/19 01:40:44;;;;;;;6.70;3.97;;;-0.80;99.90;;;;;;5025429;28;20211;-69
2021/03/19 01:43:25;;;;;;;4.97;4.07;;;-0.80;99.90;;;;;;5032624;28;20193;-70
2021/03/19 01:46:32;;;;;;;7.83;4.60;;;-0.80;99.90;;;;;;5028479;28;20213;-67
2021/03/19 01:49:36;;;;;;;5.73;3.87;;;-0.70;99.90;;;;;;5029100;28;20207;-71
2021/03/19 01:52:39;;;;;;;4.83;3.67;;;-0.70;99.90;;;;;;5025547;28;20198;-70
2021/03/19 01:55:42;;;;;;;5.03;4.30;;;-0.80;99.90;;;;;;5028887;28;20202;-71
2021/03/19 01:58:45;;;;;;;6.33;4.30;;;-0.90;99.90;;;;;;5031636;28;20178;-71
2021/03/19 02:01:48;;;;;;;5.17;3.20;;;-0.90;99.90;;;;;;5024298;28;20187;-70
2021/03/19 02:04:51;;;;;;;3.63;2.77;;;-1.00;99.90;;;;;;5030181;28;20202;-69
2021/03/19 02:07:54;;;;;;;6.43;4.30;;;-1.00;99.90;;;;;;5025387;28;20178;-69
2021/03/19 02:10:57;;;;;;;5.63;3.20;;;-1.00;99.90;;;;;;5026068;28;20268;-69
2021/03/19 02:14:00;;;;;;;5.47;3.40;;;-1.00;99.90;;;;;;5025269;28;20237;-67
2021/03/19 02:17:03;;;;;;;7.17;3.23;;;-0.90;99.90;;;;;;5025842;28;20182;-69
2021/03/19 02:20:07;;;;;;;3.43;2.80;;;-0.90;99.90;;;;;;5024855;28;20191;-68
2021/03/19 02:23:09;;;;;;;4.70;2.80;;;-1.00;99.90;;;;;;5024652;28;21174;-70
2021/03/19 02:26:13;;;;;;;5.60;3.70;;;-1.00;99.90;;;;;;5025011;28;20178;-70
2021/03/19 02:29:16;;;;;;;4.33;2.83;;;-1.10;99.90;;;;;;5028428;28;20232;-68
2021/03/19 02:31:53;;;;;;;3.93;2.03;;;-1.10;99.90;;;;;;5026986;28;20182;-69
2021/03/19 02:34:20;;;;;;;3.63;2.70;;;-1.20;99.90;;;;;;5037566;28;20202;-68
2021/03/19 02:36:46;;;;;;;3.47;3.00;;;-1.20;99.90;;;;;;5035815;28;20186;-69
2021/03/19 02:39:12;;;;;;;5.00;3.27;;;-1.20;99.90;;;;;;5029519;28;20550;-69
2021/03/19 02:41:37;;;;;;;4.23;3.47;;;-1.20;99.90;;;;;;5030723;28;20257;-70
2021/03/19 02:44:03;;;;;;;4.47;3.17;;;-1.20;99.90;;;;;;5031433;28;20202;-70
2021/03/19 02:46:29;;;;;;;4.40;2.97;;;-1.30;99.90;;;;;;5032838;28;21082;-67
2021/03/19 02:48:54;;;;;;;4.27;2.20;;;-1.30;99.90;;;;;;5025162;28;20242;-68
2021/03/19 02:51:20;;;;;;;4.33;3.93;;;-1.30;99.90;;;;;;5024116;28;20179;-69
2021/03/19 02:53:46;;;;;;;4.57;3.47;;;-1.30;99.90;;;;;;5024965;28;21242;-69
2021/03/19 02:56:12;;;;;;;2.73;2.37;;;-1.40;99.90;;;;;;5024707;28;21007;-70
2021/03/19 02:58:38;;;;;;;6.47;3.57;;;-1.40;99.90;;;;;;5023591;28;20183;-71
2021/03/19 03:01:06;;;;;;;3.50;2.57;;;-1.30;99.90;;;;;;5024262;28;21060;-71
2021/03/19 03:03:32;;;;;;;4.20;2.50;;;-1.30;99.90;;;;;;5024208;28;20209;-67
2021/03/19 03:05:58;;;;;;;4.67;4.00;;;-1.40;99.90;;;;;;5024988;28;20194;-66
2021/03/19 03:08:24;;;;;;;3.43;2.60;;;-1.40;99.90;;;;;;5024879;28;20187;-70
2021/03/19 03:10:54;;;;;;;3.87;2.67;;;-1.40;99.90;;;;;;5027207;28;20175;-71
2021/03/19 03:13:20;;;;;;;2.87;2.60;;;-1.40;99.90;;;;;;5033405;28;20194;-67
2021/03/19 03:15:46;;;;;;;2.80;2.50;;;-1.40;99.90;;;;;;5039189;28;20186;-68
2021/03/19 03:18:13;;;;;;;7.70;2.67;;;-1.30;99.90;;;;;;5029487;28;20178;-69
2021/03/19 03:20:49;;;;;;;4.10;2.77;;;-1.50;99.90;;;;;;5025111;28;20186;-68
2021/03/19 03:23:17;;;;;;;3.67;2.73;;;-1.50;99.90;;;;;;5031431;28;20189;-70
2021/03/19 03:25:43;;;;;;;2.93;2.47;;;-1.50;99.90;;;;;;5023989;28;20198;-71
2021/03/19 03:28:11;;;;;;;2.57;1.93;;;-1.50;99.90;;;;;;5024880;28;20183;-69
2021/03/19 03:30:52;;;;;;;2.47;2.07;;;-1.50;99.90;;;;;;5025006;28;20183;-69
2021/03/19 03:33:19;;;;;;;3.20;2.23;;;-1.40;99.90;;;;;;5024177;28;20198;-68
2021/03/19 03:35:45;;;;;;;2.43;1.57;;;-1.50;99.90;;;;;;5023728;28;20557;-67
2021/03/19 03:38:15;;;;;;;4.33;2.93;;;-1.50;99.90;;;;;;5024119;28;20183;-68
2021/03/19 03:40:53;;;;;;;2.70;2.50;;;-1.50;99.90;;;;;;5023248;28;20183;-68
2021/03/19 03:43:19;;;;;;;3.73;2.40;;;-1.50;99.90;;;;;;5024424;28;20203;-69
2021/03/19 03:45:45;;;;;;;4.13;2.90;;;-1.50;99.90;;;;;;5025334;28;20195;-70
2021/03/19 03:48:14;;;;;;;3.27;2.77;;;-1.60;99.90;;;;;;5032761;28;20190;-69
2021/03/19 03:50:41;;;;;;;2.67;1.83;;;-1.60;99.90;;;;;;5024958;28;20265;-66
2021/03/19 03:53:09;;;;;;;4.43;2.77;;;-1.60;99.90;;;;;;5024636;28;20190;-68
2021/03/19 03:55:37;;;;;;;4.57;3.17;;;-1.60;99.90;;;;;;5036476;28;20189;-70
2021/03/19 03:58:04;;;;;;;2.87;2.13;;;-1.50;99.90;;;;;;5025102;28;20613;-70
2021/03/19 04:00:30;;;;;;;2.23;2.03;;;-1.50;99.90;;;;;;5029614;28;20658;-70
2021/03/19 04:02:56;;;;;;;5.67;2.87;;;-1.60;99.90;;;;;;5024334;28;20317;-67
2021/03/19 04:05:25;;;;;;;3.60;2.47;;;-1.70;99.90;;;;;;5031177;28;20751;-70
2021/03/19 04:07:51;;;;;;;2.53;2.20;;;-1.70;99.90;;;;;;5022806;28;20183;-69
2021/03/19 04:10:17;;;;;;;3.67;3.13;;;-1.70;99.90;;;;;;5027737;28;20217;-67
2021/03/19 04:12:44;;;;;;;5.47;2.57;;;-1.60;99.90;;;;;;5023064;28;20190;-70
2021/03/19 04:15:11;;;;;;;4.63;3.40;;;-1.60;99.90;;;;;;5026286;28;20694;-66
2021/03/19 04:17:37;;;;;;;3.27;2.00;;;-1.70;99.90;;;;;;5025788;28;20186;-68
2021/03/19 04:20:05;;;;;;;2.97;2.33;;;-1.70;99.90;;;;;;5029981;28;20554;-65
2021/03/19 04:22:32;;;;;;;6.10;4.67;;;-1.50;99.90;;;;;;5026956;28;20642;-68
2021/03/19 04:24:57;;;;;;;6.57;4.20;;;-1.40;99.90;;;;;;5029538;28;20292;-69
2021/03/19 04:27:27;;;;;;;5.83;4.50;;;-1.30;99.90;;;;;;5023904;28;20357;-71
2021/03/19 04:29:55;;;;;;;7.60;5.57;;;-1.30;99.90;;;;;;5022977;28;20286;-70
2021/03/19 04:32:21;;;;;;;5.97;4.10;;;-1.20;99.90;;;;;;5029267;28;20174;-70
2021/03/19 04:34:46;;;;;;;8.13;5.67;;;-1.20;99.90;;;;;;5026445;28;20803;-68
2021/03/19 04:37:12;;;;;;;5.07;3.97;;;-1.30;99.90;;;;;;5023376;28;20218;-69
2021/03/19 04:39:44;;;;;;;5.93;4.07;;;-1.20;99.90;;;;;;5022982;28;20186;-67
2021/03/19 04:42:11;;;;;;;6.23;3.07;;;-1.10;99.90;;;;;;5030528;28;20612;-68
2021/03/19 04:44:43;;;;;;;4.20;2.67;;;-1.10;99.90;;;;;;5026234;28;20236;-66
2021/03/19 04:47:09;;;;;;;3.90;2.90;;;-1.10;99.90;;;;;;5031178;28;20698;-68
2021/03/19 04:49:35;;;;;;;3.47;3.10;;;-1.10;99.90;;;;;;5022730;28;20209;-68
2021/03/19 04:52:02;;;;;;;4.83;3.80;;;-1.10;99.90;;;;;;5022537;28;20189;-68
2021/03/19 04:54:28;;;;;;;4.63;3.90;;;-1.00;99.90;;;;;;5029575;28;20214;-68
2021/03/19 04:56:54;;;;;;;10.40;5.20;;;-1.00;99.90;;;;;;5028138;28;20190;-67
2021/03/19 04:59:20;;;;;;;4.10;3.23;;;-1.10;99.90;;;;;;5023960;28;20191;-66
2021/03/19 05:01:46;;;;;;;6.80;4.33;;;-1.10;99.90;;;;;;5030840;28;20884;-69
2021/03/19 05:04:12;;;;;;;3.83;2.87;;;-1.10;99.90;;;;;;5029975;28;20214;-67
2021/03/19 05:06:38;;;;;;;5.90;3.97;;;-1.10;99.90;;;;;;5023381;28;20552;-69
2021/03/19 05:09:04;;;;;;;5.70;3.43;;;-1.10;99.90;;;;;;5024725;28;20320;-70
2021/03/19 05:11:30;;;;;;;7.27;4.57;;;-1.10;99.90;;;;;;5030654;28;20528;-66
2021/03/19 05:13:56;;;;;;;6.40;3.30;;;-1.10;99.90;;;;;;5022860;28;20210;-66
2021/03/19 05:16:21;;;;;;;7.00;3.80;;;-1.10;99.90;;;;;;5030793;28;20175;-68
2021/03/19 05:18:47;;;;;;;5.17;4.00;;;-1.10;99.90;;;;;;5022857;28;20245;-68
2021/03/19 05:21:13;;;;;;;5.03;4.07;;;-1.10;99.90;;;;;;5024939;28;20197;-68
2021/03/19 05:23:39;;;;;;;5.07;3.57;;;-1.10;99.90;;;;;;5026257;28;20701;-68
2021/03/19 05:26:05;;;;;;;6.43;3.33;;;-1.10;99.90;;;;;;5031410;28;20190;-65
2021/03/19 05:28:32;;;;;;;5.97;3.90;;;-1.10;99.90;;;;;;5023068;28;20179;-71
2021/03/19 05:30:58;;;;;;;4.23;3.33;;;-1.00;99.90;;;;;;5026339;28;20571;-65
2021/03/19 05:33:26;;;;;;;6.37;5.03;;;-1.00;99.90;;;;;;5023042;28;20210;-69
2021/03/19 05:35:53;;;;;;;3.93;3.03;;;-1.00;99.90;;;;;;5025022;28;20320;-67
2021/03/19 05:38:18;;;;;;;8.67;4.53;;;-1.00;99.90;;;;;;5025980;28;20179;-65
2021/03/19 05:40:48;;;;;;;6.37;4.53;;;-1.00;99.90;;;;;;5026900;28;20186;-70
2021/03/19 05:43:28;;;;;;;3.90;3.13;;;-1.00;99.90;;;;;;5038041;28;20803;-67
2021/03/19 05:45:55;;;;;;;3.87;3.23;;;-1.00;99.90;;;;;;5034899;28;20247;-68
2021/03/19 05:48:23;;;;;;;6.03;4.60;;;-0.90;99.90;;;;;;5034737;28;20660;-69
2021/03/19 05:50:49;;;;;;;4.67;3.87;;;-0.90;99.90;;;;;;5026902;28;20175;-66
2021/03/19 05:53:21;;;;;;;3.77;3.40;;;-1.00;99.90;;;;;;5031100;28;20187;-71
2021/03/19 05:55:47;;;;;;;3.40;2.97;;;-0.90;99.90;;;;;;5032651;28;20187;-67
2021/03/19 05:58:26;;;;;;;6.77;3.90;;;-0.90;99.90;;;;;;5026011;28;20178;-67
2021/03/19 06:01:01;;;;;;;6.33;3.97;;;-0.90;99.90;;;;;;5025502;28;20393;-68
2021/03/19 06:03:26;;;;;;;6.23;3.97;;;-0.90;99.90;;;;;;5029145;28;20260;-65
2021/03/19 06:06:07;;;;;;;5.50;3.63;;;-0.80;99.90;;;;;;5024239;28;20187;-69
2021/03/19 06:08:40;;;;;;;6.63;4.17;;;-0.80;99.90;;;;;;5025507;28;20187;-68
2021/03/19 06:11:24;;;;;;;8.90;5.23;;;-0.80;99.90;;;;;;5024620;28;20245;-66
2021/03/19 06:13:55;;;;;;;6.57;4.37;;;-0.70;99.90;;;;;;5024966;28;20280;-68
2021/03/19 06:16:36;;;;;;;11.57;7.47;;;-0.80;99.90;;;;;;5039710;28;20201;-69
2021/03/19 06:19:23;;;;;;;12.20;6.83;;;-0.70;99.90;;;;;;5025350;28;20659;-70
2021/03/19 06:21:49;;;;;;;10.77;7.20;;;-0.60;99.90;;;;;;5024697;28;20183;-70
2021/03/19 06:24:25;;;;;;;14.40;8.73;;;-0.60;99.90;;;;;;5026264;28;20215;-67
2021/03/19 06:26:53;;;;;;;15.67;8.27;;;-0.50;99.90;;;;;;5025491;28;20190;-68
2021/03/19 06:29:29;;;;;;;20.27;11.23;;;-0.50;99.90;;;;;;5024781;28;20268;-69
2021/03/19 06:32:13;;;;;;;19.83;11.10;;;-0.50;99.90;;;;;;5023828;28;20672;-69
2021/03/19 06:34:56;;;;;;;6.37;4.90;;;-0.40;99.90;;;;;;5024942;28;20264;-70
2021/03/19 06:37:36;;;;;;;5.20;3.47;;;-0.30;99.90;;;;;;5029762;28;20210;-69
2021/03/19 06:40:25;;;;;;;7.83;5.53;;;-0.20;99.90;;;;;;5024500;28;20187;-69
2021/03/19 06:42:50;;;;;;;7.13;4.20;;;-0.20;99.90;;;;;;5024658;28;20218;-69
2021/03/19 06:45:19;;;;;;;5.57;3.50;;;-0.20;99.90;;;;;;5025042;28;20233;-69
2021/03/19 06:47:54;;;;;;;4.80;3.63;;;-0.10;99.90;;;;;;5029561;28;20177;-67
2021/03/19 06:50:22;;;;;;;7.23;4.27;;;-0.20;99.90;;;;;;5026724;28;20674;-67
2021/03/19 06:52:50;;;;;;;3.07;2.53;;;0.00;99.90;;;;;;5035257;28;20220;-69
2021/03/19 06:55:35;;;;;;;5.00;3.97;;;0.10;99.90;;;;;;5034468;28;20252;-66
2021/03/19 06:58:01;;;;;;;5.17;3.53;;;0.00;99.90;;;;;;5027118;28;20194;-66
2021/03/19 07:00:41;;;;;;;4.20;3.67;;;0.00;99.90;;;;;;5024115;28;20198;-67
2021/03/19 07:03:44;;;;;;;4.47;3.20;;;0.10;99.90;;;;;;5029291;28;20650;-69
2021/03/19 07:06:45;;;;;;;4.87;3.30;;;0.10;99.90;;;;;;5023314;28;20959;-68
2021/03/19 07:09:29;;;;;;;3.97;3.07;;;0.10;99.90;;;;;;5029598;28;20238;-69
2021/03/19 07:12:06;;;;;;;3.40;2.67;;;0.10;99.90;;;;;;5032582;28;20284;-69
2021/03/19 07:14:54;;;;;;;5.60;4.30;;;0.20;99.90;;;;;;5037644;28;20215;-72
2021/03/19 07:17:37;;;;;;;4.87;3.60;;;0.20;99.90;;;;;;5030944;28;20266;-68
2021/03/19 07:20:03;;;;;;;4.30;3.57;;;0.40;99.90;;;;;;5032900;28;20182;-67
2021/03/19 07:22:49;;;;;;;4.73;3.60;;;0.60;99.90;;;;;;5031859;28;20232;-69
2021/03/19 07:25:39;;;;;;;5.40;4.17;;;0.60;99.90;;;;;;5030319;28;21047;-69
2021/03/19 07:28:24;;;;;;;3.93;3.20;;;0.50;99.90;;;;;;5025708;28;20211;-68
2021/03/19 07:30:58;;;;;;;3.80;3.43;;;0.70;99.90;;;;;;5022086;28;20266;-71
2021/03/19 07:33:35;;;;;;;4.53;3.33;;;0.80;99.90;;;;;;5023968;28;20705;-70
2021/03/19 07:36:43;;;;;;;4.77;3.00;;;1.10;99.90;;;;;;5023755;28;20178;-66
2021/03/19 07:39:23;;;;;;;4.27;3.87;;;1.10;99.90;;;;;;5023641;28;20225;-69
2021/03/19 07:42:27;;;;;;;4.70;3.67;;;1.00;99.90;;;;;;5022236;28;20293;-67
2021/03/19 07:45:30;;;;;;;4.33;3.83;;;1.20;99.90;;;;;;5027041;28;21190;-71
2021/03/19 07:48:25;;;;;;;3.77;3.40;;;1.30;99.90;;;;;;5024000;28;20233;-68
2021/03/19 07:51:00;;;;;;;4.13;3.33;;;1.40;99.90;;;;;;5042476;28;20187;-70
2021/03/19 07:53:25;;;;;;;7.03;4.33;;;1.40;99.90;;;;;;5024138;28;20206;-70
2021/03/19 07:56:16;;;;;;;4.10;3.47;;;1.60;99.90;;;;;;5025953;28;20221;-70
2021/03/19 07:58:47;;;;;;;6.70;4.33;;;1.60;99.90;;;;;;5027783;28;20273;-69
2021/03/19 08:01:25;;;;;;;5.47;3.93;;;1.70;99.90;;;;;;5030616;28;20206;-71
2021/03/19 08:04:12;;;;;;;6.57;4.83;;;1.60;99.90;;;;;;5025666;28;20214;-69
2021/03/19 08:06:45;;;;;;;5.17;3.57;;;1.50;99.90;;;;;;5023284;28;20183;-67
2021/03/19 08:09:43;;;;;;;5.07;3.37;;;1.60;99.90;;;;;;5029872;28;20223;-68
2021/03/19 08:12:22;;;;;;;6.23;4.40;;;1.60;99.90;;;;;;5022623;28;20194;-67
2021/03/19 08:14:56;;;;;;;5.93;3.83;;;1.70;99.90;;;;;;5022497;28;20194;-67
2021/03/19 08:17:46;;;;;;;6.10;4.37;;;1.90;99.90;;;;;;5025020;28;20174;-68
2021/03/19 08:20:36;;;;;;;5.73;4.03;;;2.00;99.90;;;;;;5022841;28;20732;-70
2021/03/19 08:23:29;;;;;;;6.30;4.87;;;2.00;99.90;;;;;;5022423;28;20230;-70
2021/03/19 08:25:54;;;;;;;5.30;3.60;;;2.10;99.90;;;;;;5023672;28;20183;-69
2021/03/19 08:28:37;;;;;;;5.33;3.67;;;1.90;99.90;;;;;;5023218;28;20525;-69
2021/03/19 08:31:30;;;;;;;6.07;4.93;;;2.20;99.90;;;;;;5023058;28;20174;-68
2021/03/19 08:33:59;;;;;;;6.00;4.63;;;2.60;99.90;;;;;;5023811;28;20194;-70
2021/03/19 08:36:38;;;;;;;8.03;4.57;;;2.70;99.90;;;;;;5026013;28;20280;-70
2021/03/19 08:39:21;;;;;;;6.33;3.90;;;2.50;99.90;;;;;;5028851;28;20187;-70
2021/03/19 08:41:55;;;;;;;5.20;3.80;;;2.50;99.90;;;;;;5019893;28;20233;-67
2021/03/19 08:44:25;;;;;;;6.73;5.00;;;2.70;99.90;;;;;;5023958;28;20198;-69
2021/03/19 08:46:56;;;;;;;5.13;4.23;;;3.30;99.90;;;;;;5027577;28;20194;-66
2021/03/19 08:49:24;;;;;;;6.47;4.30;;;3.80;99.90;;;;;;5027204;28;20237;-68
2021/03/19 08:51:55;;;;;;;5.53;3.83;;;4.20;99.90;;;;;;5024983;28;20269;-67
2021/03/19 08:54:26;;;;;;;4.53;3.10;;;4.10;99.90;;;;;;5029532;28;20206;-66
2021/03/19 08:57:15;;;;;;;5.37;3.70;;;3.60;99.90;;;;;;5024996;28;20278;-68
2021/03/19 08:59:41;;;;;;;5.37;3.80;;;3.20;99.90;;;;;;5024019;28;20179;-69
2021/03/19 09:02:25;;;;;;;10.13;5.40;;;3.20;99.90;;;;;;5024986;28;20193;-69
2021/03/19 09:04:56;;;;;;;5.00;3.60;;;3.40;99.90;;;;;;5038732;28;20254;-68
2021/03/19 09:07:24;;;;;;;6.20;4.70;;;3.50;99.90;;;;;;5027105;28;20278;-69
2021/03/19 09:09:52;;;;;;;6.53;4.47;;;3.60;99.90;;;;;;5033435;28;20202;-67
2021/03/19 09:12:27;;;;;;;7.27;4.90;;;3.40;99.90;;;;;;5027250;28;20703;-68
2021/03/19 09:15:16;;;;;;;5.73;3.73;;;3.60;99.90;;;;;;5030632;28;20224;-68
2021/03/19 09:17:48;;;;;;;4.87;3.17;;;3.70;99.90;;;;;;5031055;28;20179;-68
2021/03/19 09:20:24;;;;;;;6.97;4.43;;;3.90;99.90;;;;;;5026849;28;20179;-67
2021/03/19 09:23:10;;;;;;;4.13;3.73;;;4.00;99.90;;;;;;5026975;28;20270;-67
2021/03/19 09:25:40;;;;;;;5.03;3.80;;;3.90;99.90;;;;;;5034277;28;20590;-67
2021/03/19 09:28:20;;;;;;;8.23;3.87;;;4.20;99.90;;;;;;5042654;28;20183;-67
2021/03/19 09:30:52;;;;;;;4.23;3.80;;;5.00;99.90;;;;;;5031851;28;20208;-68
2021/03/19 09:33:48;;;;;;;11.87;5.87;;;5.30;99.90;;;;;;5029480;28;20226;-68
2021/03/19 09:36:52;;;;;;;5.70;4.07;;;5.60;99.90;;;;;;5029407;28;20183;-69
2021/03/19 09:39:46;;;;;;;6.10;4.47;;;6.20;99.90;;;;;;5037771;28;20174;-66
2021/03/19 09:42:32;;;;;;;6.03;4.10;;;6.30;99.90;;;;;;5027868;28;20188;-68
2021/03/19 09:44:57;;;;;;;7.00;5.50;;;6.30;99.90;;;;;;5031060;28;20238;-69
2021/03/19 09:47:33;;;;;;;5.13;3.63;;;5.80;99.90;;;;;;5029655;28;20192;-69
2021/03/19 09:50:26;;;;;;;8.77;4.27;;;6.20;99.90;;;;;;5033549;28;20213;-67
2021/03/19 09:52:57;;;;;;;7.37;4.63;;;6.70;99.90;;;;;;5028061;28;20183;-68
2021/03/19 09:55:35;;;;;;;6.40;3.73;;;6.90;99.90;;;;;;5030079;28;20189;-68
2021/03/19 09:58:20;;;;;;;6.37;4.63;;;6.90;99.90;;;;;;5026722;28;20182;-69
2021/03/19 10:00:49;;;;;;;5.50;3.90;;;7.00;99.90;;;;;;5031374;28;20197;-68
2021/03/19 10:03:16;;;;;;;4.33;3.20;;;6.90;99.90;;;;;;5028061;28;20175;-67
2021/03/19 10:05:46;;;;;;;7.37;5.07;;;6.60;99.90;;;;;;5031301;28;20209;-67
2021/03/19 10:08:32;;;;;;;4.97;3.50;;;6.70;99.90;;;;;;5029430;28;20256;-66
2021/03/19 10:11:09;;;;;;;5.13;3.47;;;7.00;99.90;;;;;;5036387;28;20183;-67
2021/03/19 10:13:35;;;;;;;6.27;3.73;;;7.20;99.90;;;;;;5031866;28;20202;-69
2021/03/19 10:16:02;;;;;;;6.17;3.80;;;6.90;99.90;;;;;;5029630;28;20179;-67
2021/03/19 10:18:38;;;;;;;6.53;4.40;;;7.00;99.90;;;;;;5032240;28;20277;-67
2021/03/19 10:21:19;;;;;;;5.90;4.13;;;6.60;99.90;;;;;;5032791;28;20598;-68
2021/03/19 10:23:54;;;;;;;4.03;3.13;;;6.60;99.90;;;;;;5025039;28;20572;-67
2021/03/19 10:26:37;;;;;;;5.23;4.07;;;7.00;99.90;;;;;;5025842;28;20232;-68
2021/03/19 10:29:23;;;;;;;9.50;5.53;;;7.40;99.90;;;;;;5025259;28;20213;-69
2021/03/19 10:31:56;;;;;;;5.00;3.20;;;7.60;99.90;;;;;;5027776;28;20289;-66
2021/03/19 10:34:34;;;;;;;4.33;3.70;;;7.40;99.90;;;;;;5032788;28;20673;-66
2021/03/19 10:37:11;;;;;;;3.70;3.07;;;7.00;99.90;;;;;;5031161;28;20232;-66
2021/03/19 10:39:52;;;;;;;4.80;3.70;;;6.80;99.90;;;;;;5036040;28;20864;-68
2021/03/19 10:42:33;;;;;;;4.53;2.93;;;6.70;99.90;;;;;;5029525;28;20624;-69
2021/03/19 10:45:30;;;;;;;3.43;2.00;;;6.70;99.90;;;;;;5035666;28;20623;-66
2021/03/19 10:48:20;;;;;;;2.20;2.00;;;6.50;99.90;;;;;;5024989;28;20260;-68
2021/03/19 10:51:14;;;;;;;5.37;2.90;;;6.10;99.90;;;;;;5024060;28;20203;-68
2021/03/19 10:53:46;;;;;;;2.30;1.97;;;5.50;99.90;;;;;;5028231;28;20534;-69
2021/03/19 10:56:12;;;;;;;2.47;2.23;;;5.50;99.90;;;;;;5031081;28;20182;-68
2021/03/19 10:58:46;;;;;;;7.13;5.00;;;5.30;99.90;;;;;;5031128;28;20187;-69
2021/03/19 11:01:34;;;;;;;2.93;1.97;;;5.20;99.90;;;;;;5022872;28;20189;-68
2021/03/19 11:04:25;;;;;;;2.67;1.77;;;5.30;99.90;;;;;;5028733;28;20195;-68
2021/03/19 11:06:53;;;;;;;10.40;8.33;;;5.40;99.90;;;;;;5024065;28;20191;-68
2021/03/19 11:09:24;;;;;;;6.07;5.50;;;5.30;99.90;;;;;;5036223;28;20240;-69
2021/03/19 11:11:58;;;;;;;2.43;2.20;;;5.10;99.90;;;;;;5029218;28;20186;-69
2021/03/19 11:14:28;;;;;;;6.27;4.70;;;5.20;99.90;;;;;;5027801;28;20215;-66
2021/03/19 11:17:13;;;;;;;5.33;3.57;;;5.00;99.90;;;;;;5025215;28;20190;-67
2021/03/19 11:19:55;;;;;;;3.10;1.73;;;5.30;99.90;;;;;;5025297;28;20194;-69
2021/03/19 11:22:21;;;;;;;2.47;2.27;;;5.40;99.90;;;;;;5025284;28;20212;-70
2021/03/19 11:24:47;;;;;;;1.40;1.30;;;5.50;99.90;;;;;;5028475;28;20854;-66
2021/03/19 11:27:21;;;;;;;1.60;1.50;;;6.00;99.90;;;;;;5032951;28;21485;-66
2021/03/19 11:29:48;;;;;;;1.63;1.40;;;6.20;99.90;;;;;;5029603;28;20206;-67
2021/03/19 11:32:14;;;;;;;2.37;2.13;;;6.10;99.90;;;;;;5030072;28;20184;-69
2021/03/19 11:34:45;;;;;;;1.40;1.30;;;6.30;99.90;;;;;;5030227;28;20616;-67
2021/03/19 11:37:23;;;;;;;3.70;1.50;;;6.30;99.90;;;;;;5040920;28;20660;-69
2021/03/19 11:40:00;;;;;;;1.17;1.03;;;6.30;99.90;;;;;;5027322;28;20229;-67
2021/03/19 11:42:33;;;;;;;3.13;2.30;;;6.20;99.90;;;;;;5030474;28;20232;-67
2021/03/19 11:45:12;;;;;;;2.00;1.47;;;5.90;99.90;;;;;;5031914;28;20215;-68
2021/03/19 11:47:41;;;;;;;2.10;1.63;;;5.90;99.90;;;;;;5032589;28;20194;-68
2021/03/19 11:50:26;;;;;;;1.40;1.10;;;5.80;99.90;;;;;;5029128;28;20202;-68
2021/03/19 11:53:05;;;;;;;2.30;1.93;;;5.60;99.90;;;;;;5022837;28;20254;-69
2021/03/19 11:55:42;;;;;;;4.87;2.43;;;5.60;99.90;;;;;;5032179;28;20190;-68
2021/03/19 11:58:11;;;;;;;3.20;2.03;;;5.40;99.90;;;;;;5023569;28;21137;-69
2021/03/19 12:00:38;;;;;;;1.60;1.30;;;5.20;99.90;;;;;;5032314;28;20207;-68
2021/03/19 12:03:10;;;;;;;1.57;1.23;;;5.20;99.90;;;;;;5028397;28;20213;-66
2021/03/19 12:05:36;;;;;;;1.77;1.67;;;5.20;99.90;;;;;;5029058;28;20179;-69
2021/03/19 12:08:02;;;;;;;2.57;1.47;;;5.40;99.90;;;;;;5026253;28;20563;-69
2021/03/19 12:10:29;;;;;;;2.37;1.90;;;5.80;99.90;;;;;;5033104;28;20312;-68
2021/03/19 12:12:56;;;;;;;2.27;1.80;;;5.50;99.90;;;;;;5029067;28;20171;-66
2021/03/19 12:15:23;;;;;;;3.30;2.03;;;5.10;99.90;;;;;;5029225;28;20690;-67
2021/03/19 12:17:48;;;;;;;4.03;2.17;;;5.00;99.90;;;;;;5033084;28;20175;-66
2021/03/19 12:20:14;;;;;;;4.57;2.60;;;5.00;99.90;;;;;;5023556;28;20182;-68
2021/03/19 12:22:41;;;;;;;2.97;2.17;;;5.00;99.90;;;;;;5030880;28;20194;-68
2021/03/19 12:25:37;;;;;;;1.70;1.43;;;5.30;99.90;;;;;;5025379;28;20217;-68
2021/03/19 12:28:04;;;;;;;3.93;2.43;;;5.80;99.90;;;;;;5021846;28;20694;-68
2021/03/19 12:30:30;;;;;;;1.90;1.53;;;5.80;99.90;;;;;;5026297;28;20264;-65
2021/03/19 12:32:57;;;;;;;5.93;3.37;;;5.50;99.90;;;;;;5024180;28;20685;-68
2021/03/19 12:35:26;;;;;;;4.00;2.10;;;5.40;99.90;;;;;;5028270;28;20722;-67
2021/03/19 12:37:52;;;;;;;1.77;1.57;;;5.30;99.90;;;;;;5033529;28;20300;-66
2021/03/19 12:40:20;;;;;;;5.00;2.47;;;5.50;99.90;;;;;;5025650;28;20206;-68
2021/03/19 12:42:48;;;;;;;5.13;4.13;;;5.50;99.90;;;;;;5029571;28;20274;-69
2021/03/19 12:45:14;;;;;;;109.70;44.70;;;5.80;99.90;;;;;;5025449;28;20562;-66
2021/03/19 12:47:40;;;;;;;25.60;17.00;;;6.00;99.90;;;;;;5028495;28;20194;-68
2021/03/19 12:50:06;;;;;;;6.47;5.60;;;5.80;99.90;;;;;;5025225;28;20209;-69
2021/03/19 12:52:32;;;;;;;9.80;8.40;;;5.40;99.90;;;;;;5032944;28;20183;-67
2021/03/19 12:54:58;;;;;;;4.87;3.47;;;5.20;99.90;;;;;;5033179;28;20586;-68
2021/03/19 12:57:24;;;;;;;10.40;9.40;;;5.20;99.90;;;;;;5030171;28;20202;-66
2021/03/19 12:59:49;;;;;;;3.00;2.47;;;5.20;99.90;;;;;;5035723;28;20189;-70
2021/03/19 13:02:15;;;;;;;10.13;9.07;;;5.40;99.90;;;;;;5032258;28;20198;-70
2021/03/19 13:04:41;;;;;;;6.53;6.03;;;5.60;99.90;;;;;;5028973;28;20752;-70
2021/03/19 13:07:08;;;;;;;5.10;3.00;;;5.60;99.90;;;;;;5026791;28;20214;-70
2021/03/19 13:09:35;;;;;;;4.90;4.43;;;5.80;99.90;;;;;;5025886;28;20671;-68
2021/03/19 13:12:00;;;;;;;4.73;3.33;;;5.80;99.90;;;;;;5034048;28;20233;-68
2021/03/19 13:14:30;;;;;;;2.53;1.87;;;5.70;99.90;;;;;;5024180;28;20206;-70
2021/03/19 13:16:57;;;;;;;2.17;1.97;;;5.70;99.90;;;;;;5035316;28;20178;-69
2021/03/19 13:19:22;;;;;;;1.93;1.73;;;5.40;99.90;;;;;;5029014;28;20197;-68
2021/03/19 13:21:48;;;;;;;2.10;1.80;;;5.10;99.90;;;;;;5035890;28;20183;-69
2021/03/19 13:24:14;;;;;;;2.20;1.70;;;5.20;99.90;;;;;;5032633;28;20563;-70
2021/03/19 13:26:40;;;;;;;3.17;2.10;;;5.10;99.90;;;;;;5033458;28;20186;-69